Time;durP1;ratioP1;P1;durP2;ratioP2;P2;SDS_P1;SDS_P2;PMS_P1;PMS_P2;Temp;Humidity;BMP_temperature;BMP_pressure;BME280_temperature;BME280_humidity;BME280_pressure;Samples;Min_cycle;Max_cycle;Signal;HPM_P1;HPM_P2
2023/10/01 00:01:33;;;;;;;22.80;21.20;;;;;;;;;;4940533;29;20472;-84
2023/10/01 00:04:01;;;;;;;23.53;21.83;;;;;;;;;;4940160;29;20439;-84
2023/10/01 00:06:29;;;;;;;22.60;21.20;;;;;;;;;;4939768;29;21137;-82
2023/10/01 00:08:57;;;;;;;23.70;21.80;;;;;;;;;;4940550;29;20452;-83
2023/10/01 00:11:25;;;;;;;23.27;21.60;;;;;;;;;;4940508;29;20456;-85
2023/10/01 00:13:52;;;;;;;23.23;21.73;;;;;;;;;;4939648;29;20458;-83
2023/10/01 00:16:19;;;;;;;23.10;21.63;;;;;;;;;;4940032;29;20450;-84
2023/10/01 00:18:47;;;;;;;23.00;21.40;;;;;;;;;;4940413;29;20959;-84
2023/10/01 00:21:14;;;;;;;23.70;22.10;;;;;;;;;;4939849;29;20488;-84
2023/10/01 00:23:43;;;;;;;22.80;21.20;;;;;;;;;;4940317;29;20491;-84
2023/10/01 00:26:11;;;;;;;23.83;21.83;;;;;;;;;;4939466;29;20853;-84
2023/10/01 00:28:38;;;;;;;25.30;23.40;;;;;;;;;;4940293;29;20438;-83
2023/10/01 00:31:06;;;;;;;23.60;21.77;;;;;;;;;;4940365;29;20422;-84
2023/10/01 00:33:33;;;;;;;21.70;20.50;;;;;;;;;;4940699;29;20539;-84
2023/10/01 00:36:00;;;;;;;23.70;22.00;;;;;;;;;;4940109;29;20452;-84
2023/10/01 00:38:27;;;;;;;23.13;21.60;;;;;;;;;;4940190;29;20854;-85
2023/10/01 00:40:56;;;;;;;23.10;21.60;;;;;;;;;;4940594;29;20523;-83
2023/10/01 00:43:26;;;;;;;22.83;21.10;;;;;;;;;;4939975;29;20419;-85
2023/10/01 00:45:53;;;;;;;23.93;22.20;;;;;;;;;;4955451;28;20459;-84
2023/10/01 00:48:23;;;;;;;23.33;21.60;;;;;;;;;;4941675;28;20851;-85
2023/10/01 00:50:51;;;;;;;23.57;21.80;;;;;;;;;;4940380;29;20400;-85
2023/10/01 00:53:19;;;;;;;21.60;20.07;;;;;;;;;;4939711;29;21080;-85
2023/10/01 00:55:48;;;;;;;22.70;21.10;;;;;;;;;;4939685;29;20417;-83
2023/10/01 00:58:18;;;;;;;23.30;21.87;;;;;;;;;;4939729;29;20505;-84
2023/10/01 01:00:45;;;;;;;23.93;22.10;;;;;;;;;;4938850;28;20448;-85
2023/10/01 01:03:19;;;;;;;22.57;20.97;;;;;;;;;;4940005;29;20467;-85
2023/10/01 01:05:57;;;;;;;23.67;21.77;;;;;;;;;;4939280;29;20451;-84
2023/10/01 01:08:30;;;;;;;23.03;21.23;;;;;;;;;;4943368;28;20526;-82
2023/10/01 01:11:01;;;;;;;23.67;21.97;;;;;;;;;;4939349;29;20531;-83
2023/10/01 01:13:30;;;;;;;24.20;22.10;;;;;;;;;;4939065;29;20460;-84
2023/10/01 01:16:00;;;;;;;24.30;22.00;;;;;;;;;;4939135;29;20429;-83
2023/10/01 01:18:34;;;;;;;24.30;22.60;;;;;;;;;;4940234;29;20555;-84
2023/10/01 01:21:05;;;;;;;22.83;21.30;;;;;;;;;;4942756;29;20458;-83
2023/10/01 01:23:33;;;;;;;23.63;22.23;;;;;;;;;;4943283;29;20541;-83
2023/10/01 01:26:01;;;;;;;22.90;21.30;;;;;;;;;;4938232;29;20547;-85
2023/10/01 01:28:30;;;;;;;22.77;21.17;;;;;;;;;;4938532;28;20471;-85
2023/10/01 01:30:58;;;;;;;23.13;21.37;;;;;;;;;;4940055;29;20442;-85
2023/10/01 01:33:31;;;;;;;23.20;21.80;;;;;;;;;;4938975;29;20464;-83
2023/10/01 01:35:58;;;;;;;23.70;22.00;;;;;;;;;;4937946;29;20447;-85
2023/10/01 01:38:28;;;;;;;22.50;21.00;;;;;;;;;;4938237;29;20444;-85
2023/10/01 01:40:57;;;;;;;22.63;21.13;;;;;;;;;;4939021;29;20452;-83
2023/10/01 01:43:30;;;;;;;23.57;21.87;;;;;;;;;;4939136;29;20815;-84
2023/10/01 01:46:00;;;;;;;23.20;21.60;;;;;;;;;;4938125;29;20469;-83
2023/10/01 01:48:30;;;;;;;23.20;21.77;;;;;;;;;;4938621;29;20433;-83
2023/10/01 01:50:58;;;;;;;22.37;20.93;;;;;;;;;;4938998;29;20468;-84
2023/10/01 01:53:27;;;;;;;23.30;21.67;;;;;;;;;;4939183;29;20431;-84
2023/10/01 01:55:59;;;;;;;22.90;21.30;;;;;;;;;;4938139;29;20465;-85
2023/10/01 01:58:26;;;;;;;22.73;21.00;;;;;;;;;;4938337;28;20472;-85
2023/10/01 02:01:09;;;;;;;23.00;21.37;;;;;;;;;;4938263;29;20466;-83
2023/10/01 02:03:37;;;;;;;23.00;21.57;;;;;;;;;;4938821;29;20809;-83
2023/10/01 02:06:05;;;;;;;22.00;20.70;;;;;;;;;;4937787;29;20419;-83
2023/10/01 02:08:44;;;;;;;23.80;22.00;;;;;;;;;;4938500;29;20519;-85
2023/10/01 02:11:13;;;;;;;22.60;21.10;;;;;;;;;;4938779;29;20486;-83
2023/10/01 02:13:41;;;;;;;23.57;21.93;;;;;;;;;;4938345;29;20519;-84
2023/10/01 02:16:34;;;;;;;22.40;20.90;;;;;;;;;;4937906;29;20842;-84
2023/10/01 02:19:14;;;;;;;23.13;21.53;;;;;;;;;;4938764;29;20447;-85
2023/10/01 02:21:43;;;;;;;22.67;21.10;;;;;;;;;;4938311;29;20499;-83
2023/10/01 02:24:11;;;;;;;23.80;22.30;;;;;;;;;;4938180;29;20456;-84
2023/10/01 02:26:40;;;;;;;21.90;20.60;;;;;;;;;;4938556;29;20476;-83
2023/10/01 02:29:08;;;;;;;21.97;20.67;;;;;;;;;;4938080;28;20555;-83
2023/10/01 02:31:35;;;;;;;24.33;22.40;;;;;;;;;;4937973;29;20514;-82
2023/10/01 02:34:03;;;;;;;22.90;21.37;;;;;;;;;;4937871;29;20487;-82
2023/10/01 02:36:31;;;;;;;23.37;21.87;;;;;;;;;;4938216;29;20559;-83
2023/10/01 02:38:57;;;;;;;23.03;21.43;;;;;;;;;;4938635;29;20471;-83
2023/10/01 02:41:26;;;;;;;25.03;23.17;;;;;;;;;;4954160;28;21061;-83
2023/10/01 02:43:55;;;;;;;24.17;22.50;;;;;;;;;;4937872;29;20444;-83
2023/10/01 02:46:26;;;;;;;22.83;21.30;;;;;;;;;;4956868;28;20472;-86
2023/10/01 02:48:54;;;;;;;23.57;21.87;;;;;;;;;;4957815;28;20436;-84
2023/10/01 02:51:32;;;;;;;24.00;22.10;;;;;;;;;;4960168;28;20450;-84
2023/10/01 02:54:04;;;;;;;23.03;21.43;;;;;;;;;;4960112;29;20912;-84
2023/10/01 02:56:32;;;;;;;23.50;21.97;;;;;;;;;;4960668;29;20473;-83
2023/10/01 02:59:07;;;;;;;23.23;21.73;;;;;;;;;;4960601;29;20428;-84
2023/10/01 03:01:36;;;;;;;23.67;22.00;;;;;;;;;;4960322;29;20478;-82
2023/10/01 03:04:08;;;;;;;21.90;20.30;;;;;;;;;;4959711;29;20434;-83
2023/10/01 03:06:35;;;;;;;22.60;21.13;;;;;;;;;;4959807;29;20496;-84
2023/10/01 03:09:04;;;;;;;23.80;22.03;;;;;;;;;;4960694;29;20557;-84
2023/10/01 03:11:40;;;;;;;23.93;22.33;;;;;;;;;;4960522;29;20818;-85
2023/10/01 03:14:18;;;;;;;22.87;21.27;;;;;;;;;;4959880;28;20471;-83
2023/10/01 03:16:53;;;;;;;24.90;23.00;;;;;;;;;;4960134;29;20445;-84
2023/10/01 03:19:25;;;;;;;23.07;21.37;;;;;;;;;;4960126;29;20413;-84
2023/10/01 03:24:38;;;;;;;23.30;21.30;;;;;;;;;;4957739;29;20451;-84
2023/10/01 03:27:19;;;;;;;23.17;21.67;;;;;;;;;;4959609;29;20974;-83
2023/10/01 03:29:53;;;;;;;23.77;22.27;;;;;;;;;;4960280;29;20435;-83
2023/10/01 03:32:32;;;;;;;22.70;21.20;;;;;;;;;;4960296;29;20427;-85
2023/10/01 03:35:05;;;;;;;23.30;21.70;;;;;;;;;;4959064;29;20435;-85
2023/10/01 03:37:38;;;;;;;22.43;21.10;;;;;;;;;;4960090;29;20469;-85
2023/10/01 03:40:14;;;;;;;22.10;20.60;;;;;;;;;;4960464;29;20435;-83
2023/10/01 03:42:49;;;;;;;22.93;21.50;;;;;;;;;;4958826;28;20522;-83
2023/10/01 03:45:37;;;;;;;23.17;21.40;;;;;;;;;;4959667;28;21250;-83
2023/10/01 03:48:06;;;;;;;22.70;21.10;;;;;;;;;;4959463;28;20467;-85
2023/10/01 03:50:45;;;;;;;23.70;22.00;;;;;;;;;;4959569;29;20462;-85
2023/10/01 03:53:12;;;;;;;23.50;21.90;;;;;;;;;;4959726;29;20436;-83
2023/10/01 03:55:42;;;;;;;22.60;20.87;;;;;;;;;;4959433;29;20470;-83
2023/10/01 03:58:18;;;;;;;22.33;20.83;;;;;;;;;;4959549;29;20475;-85
2023/10/01 04:00:53;;;;;;;23.10;21.40;;;;;;;;;;4959123;28;20447;-85
2023/10/01 04:03:21;;;;;;;22.43;20.90;;;;;;;;;;4959683;29;20584;-85
2023/10/01 04:05:48;;;;;;;22.93;21.27;;;;;;;;;;4958382;29;20438;-84
2023/10/01 04:08:16;;;;;;;23.30;21.80;;;;;;;;;;4957403;29;20455;-84
2023/10/01 04:10:47;;;;;;;22.60;21.30;;;;;;;;;;4957777;29;20448;-84
2023/10/01 04:13:20;;;;;;;22.30;20.80;;;;;;;;;;4957752;29;20510;-85
2023/10/01 04:15:55;;;;;;;24.03;22.10;;;;;;;;;;4956997;28;20459;-85
2023/10/01 04:18:24;;;;;;;23.30;21.80;;;;;;;;;;4953119;28;20490;-84
2023/10/01 04:23:33;;;;;;;22.70;21.33;;;;;;;;;;4957711;29;20558;-84
2023/10/01 04:26:04;;;;;;;23.90;22.23;;;;;;;;;;4958876;29;20463;-83
2023/10/01 04:28:34;;;;;;;23.00;21.27;;;;;;;;;;4958319;29;20459;-85
2023/10/01 04:31:08;;;;;;;22.67;21.17;;;;;;;;;;4957625;29;20430;-84
2023/10/01 04:33:35;;;;;;;22.50;20.80;;;;;;;;;;4957881;29;20529;-84
2023/10/01 04:36:04;;;;;;;22.10;20.67;;;;;;;;;;4957264;29;20422;-84
2023/10/01 04:38:32;;;;;;;22.80;21.33;;;;;;;;;;4957459;29;20504;-84
2023/10/01 04:41:03;;;;;;;22.70;21.23;;;;;;;;;;4948621;28;20475;-83
2023/10/01 04:43:34;;;;;;;22.07;20.47;;;;;;;;;;4952690;28;20590;-85
2023/10/01 04:46:08;;;;;;;22.83;21.23;;;;;;;;;;4943622;29;20845;-84
2023/10/01 04:48:36;;;;;;;22.67;20.90;;;;;;;;;;4939411;29;20473;-83
2023/10/01 04:51:07;;;;;;;22.93;21.60;;;;;;;;;;4939740;29;20441;-84
2023/10/01 04:53:35;;;;;;;23.30;21.80;;;;;;;;;;4941120;29;20436;-83
2023/10/01 04:56:05;;;;;;;24.37;22.33;;;;;;;;;;4939841;29;20432;-85
2023/10/01 04:58:36;;;;;;;22.97;21.30;;;;;;;;;;4940802;29;20415;-83
2023/10/01 05:01:05;;;;;;;22.00;20.70;;;;;;;;;;4940800;29;20423;-83
2023/10/01 05:03:39;;;;;;;23.17;21.70;;;;;;;;;;4938798;29;20492;-83
2023/10/01 05:06:09;;;;;;;23.57;21.83;;;;;;;;;;4938790;29;20824;-84
2023/10/01 05:08:42;;;;;;;23.27;21.60;;;;;;;;;;4939589;29;20508;-83
2023/10/01 05:11:11;;;;;;;23.77;22.07;;;;;;;;;;4941804;29;20483;-83
2023/10/01 05:13:40;;;;;;;22.70;21.10;;;;;;;;;;4941559;29;20451;-83
2023/10/01 05:16:12;;;;;;;23.40;21.80;;;;;;;;;;4940144;28;20503;-84
2023/10/01 05:18:39;;;;;;;22.87;21.37;;;;;;;;;;4941786;29;20444;-83
2023/10/01 05:21:12;;;;;;;25.30;23.80;;;;;;;;;;4941170;28;20441;-83
2023/10/01 05:23:40;;;;;;;24.00;22.37;;;;;;;;;;4943656;29;20522;-84
2023/10/01 05:26:08;;;;;;;24.33;22.63;;;;;;;;;;4957269;29;20529;-83
2023/10/01 05:28:36;;;;;;;23.87;22.03;;;;;;;;;;4957984;28;20463;-83
2023/10/01 05:31:08;;;;;;;22.67;21.17;;;;;;;;;;4957684;29;20475;-84
2023/10/01 05:33:37;;;;;;;24.07;22.43;;;;;;;;;;4957676;29;20435;-83
2023/10/01 05:36:05;;;;;;;23.90;22.37;;;;;;;;;;4957414;29;20474;-84
2023/10/01 05:38:34;;;;;;;23.47;21.90;;;;;;;;;;4958256;29;20514;-83
2023/10/01 05:41:03;;;;;;;24.30;22.70;;;;;;;;;;4957747;29;20418;-86
2023/10/01 05:43:35;;;;;;;24.10;22.23;;;;;;;;;;4957796;29;20449;-85
2023/10/01 05:46:02;;;;;;;23.30;21.80;;;;;;;;;;4957149;29;20566;-83
2023/10/01 05:48:32;;;;;;;25.17;23.40;;;;;;;;;;4958081;29;20471;-83
2023/10/01 05:51:00;;;;;;;23.40;21.83;;;;;;;;;;4958485;29;20463;-85
2023/10/01 05:53:28;;;;;;;23.90;22.37;;;;;;;;;;4958909;29;20461;-83
2023/10/01 05:55:55;;;;;;;23.60;21.53;;;;;;;;;;4957840;29;20470;-83
2023/10/01 05:58:26;;;;;;;22.87;21.27;;;;;;;;;;4958590;29;20455;-85
2023/10/01 06:00:57;;;;;;;22.47;20.87;;;;;;;;;;4959270;29;20863;-82
2023/10/01 06:03:25;;;;;;;23.57;21.87;;;;;;;;;;4959590;29;20476;-83
2023/10/01 06:05:57;;;;;;;24.10;22.23;;;;;;;;;;4958947;29;20455;-82
2023/10/01 06:08:26;;;;;;;24.17;22.47;;;;;;;;;;4957716;29;20471;-86
2023/10/01 06:11:04;;;;;;;23.23;21.53;;;;;;;;;;4958398;29;20440;-84
2023/10/01 06:13:31;;;;;;;22.37;20.50;;;;;;;;;;4957829;29;20481;-84
2023/10/01 06:15:58;;;;;;;23.37;21.37;;;;;;;;;;4957160;29;20526;-83
2023/10/01 06:18:25;;;;;;;22.53;21.03;;;;;;;;;;4957799;29;20426;-83
2023/10/01 06:20:53;;;;;;;23.27;21.30;;;;;;;;;;4957415;28;20485;-82
2023/10/01 06:23:21;;;;;;;24.00;21.93;;;;;;;;;;4957402;28;20489;-82
2023/10/01 06:25:53;;;;;;;23.00;21.50;;;;;;;;;;4960786;29;20458;-85
2023/10/01 06:28:23;;;;;;;23.13;21.73;;;;;;;;;;4961034;29;20439;-83
2023/10/01 06:30:50;;;;;;;25.33;23.47;;;;;;;;;;4961465;29;20441;-85
2023/10/01 06:33:26;;;;;;;23.10;21.60;;;;;;;;;;4960853;29;20439;-82
2023/10/01 06:38:39;;;;;;;22.80;21.00;;;;;;;;;;4961368;29;20494;-82
2023/10/01 06:41:13;;;;;;;23.83;22.03;;;;;;;;;;4960394;28;20468;-82
2023/10/01 06:43:48;;;;;;;23.63;22.13;;;;;;;;;;4948873;28;20995;-85
2023/10/01 06:46:16;;;;;;;23.97;22.07;;;;;;;;;;4951345;28;20581;-81
2023/10/01 06:48:43;;;;;;;23.13;21.40;;;;;;;;;;4960820;28;20989;-82
2023/10/01 06:51:12;;;;;;;23.90;22.20;;;;;;;;;;4960855;28;20447;-82
2023/10/01 06:53:45;;;;;;;23.60;21.93;;;;;;;;;;4961857;29;20439;-80
2023/10/01 06:56:17;;;;;;;23.80;22.10;;;;;;;;;;4962214;29;20465;-83
2023/10/01 06:59:12;;;;;;;21.77;20.47;;;;;;;;;;4960611;28;20482;-80
2023/10/01 07:01:35;;;;;;;22.37;20.67;;;;;;;;;;4962200;28;20451;-81
2023/10/01 07:04:02;;;;;;;21.80;20.40;;;;;;;;;;4960345;29;20469;-82
2023/10/01 07:06:29;;;;;;;22.90;21.23;;;;;;;;;;4960518;28;20479;-80
2023/10/01 07:08:56;;;;;;;21.57;20.17;;;;;;;;;;4960467;28;20498;-81
2023/10/01 07:11:25;;;;;;;22.13;20.73;;;;;;;;;;4945290;29;20426;-81
2023/10/01 07:13:56;;;;;;;20.37;19.17;;;;;;;;;;4941450;29;20484;-82
2023/10/01 07:16:36;;;;;;;22.73;21.30;;;;;;;;;;4941850;29;20478;-82
2023/10/01 07:19:05;;;;;;;22.27;20.83;;;;;;;;;;4942353;29;20440;-81
2023/10/01 07:21:33;;;;;;;23.07;21.43;;;;;;;;;;4966648;28;20516;-82
2023/10/01 07:24:00;;;;;;;22.57;21.00;;;;;;;;;;4972240;28;20465;-80
2023/10/01 07:26:30;;;;;;;22.53;21.13;;;;;;;;;;4961499;29;20594;-82
2023/10/01 07:28:57;;;;;;;23.00;21.30;;;;;;;;;;4962608;29;20462;-81
2023/10/01 07:31:25;;;;;;;22.13;20.63;;;;;;;;;;4961797;29;20434;-84
2023/10/01 07:33:54;;;;;;;22.00;20.50;;;;;;;;;;4964552;29;20895;-84
2023/10/01 07:36:23;;;;;;;22.13;20.53;;;;;;;;;;4963890;28;20492;-84
2023/10/01 07:38:52;;;;;;;21.50;20.10;;;;;;;;;;4964248;28;21002;-85
2023/10/01 07:41:22;;;;;;;21.83;20.40;;;;;;;;;;4965568;28;20422;-85
2023/10/01 07:43:53;;;;;;;22.37;20.77;;;;;;;;;;4963936;29;20581;-85
2023/10/01 07:46:20;;;;;;;23.53;21.70;;;;;;;;;;4965568;29;20446;-84
2023/10/01 07:48:49;;;;;;;22.73;21.23;;;;;;;;;;4965131;29;20909;-84
2023/10/01 07:51:27;;;;;;;23.13;21.70;;;;;;;;;;4964360;28;20804;-85
2023/10/01 07:53:56;;;;;;;22.77;20.80;;;;;;;;;;4963958;29;20479;-85
2023/10/01 07:56:25;;;;;;;21.53;20.23;;;;;;;;;;4962217;29;20471;-85
2023/10/01 08:01:42;;;;;;;22.53;21.00;;;;;;;;;;4962836;28;20560;-85
2023/10/01 08:04:38;;;;;;;23.90;22.30;;;;;;;;;;4963500;29;20525;-84
2023/10/01 08:07:05;;;;;;;21.90;20.40;;;;;;;;;;4963372;29;20543;-83
2023/10/01 08:09:33;;;;;;;23.23;21.37;;;;;;;;;;4967259;29;20459;-84
2023/10/01 08:12:05;;;;;;;23.33;21.77;;;;;;;;;;4965867;28;20482;-84
2023/10/01 08:14:33;;;;;;;23.57;21.87;;;;;;;;;;4966126;29;20486;-84
2023/10/01 08:17:00;;;;;;;24.13;22.43;;;;;;;;;;4966617;29;20479;-83
2023/10/01 08:22:43;;;;;;;23.00;21.40;;;;;;;;;;5175662;27;20532;-82
2023/10/01 08:25:12;;;;;;;23.37;21.50;;;;;;;;;;5138618;28;20513;-84
2023/10/01 08:28:08;;;;;;;22.60;21.03;;;;;;;;;;5138584;28;20470;-83
2023/10/01 08:30:38;;;;;;;23.37;21.67;;;;;;;;;;5139169;28;20499;-83
2023/10/01 08:33:18;;;;;;;22.87;21.20;;;;;;;;;;5138724;27;20398;-83
2023/10/01 08:35:56;;;;;;;22.60;21.00;;;;;;;;;;5138184;27;20437;-84
2023/10/01 08:38:26;;;;;;;23.70;21.93;;;;;;;;;;5138346;27;20477;-82
2023/10/01 08:40:59;;;;;;;25.40;23.33;;;;;;;;;;5139123;27;20544;-83
2023/10/01 08:43:28;;;;;;;23.33;21.77;;;;;;;;;;5139217;27;20818;-84
2023/10/01 08:45:57;;;;;;;24.47;22.53;;;;;;;;;;5137576;27;20507;-84
2023/10/01 08:48:35;;;;;;;22.77;20.97;;;;;;;;;;5138437;27;20804;-84
2023/10/01 08:51:08;;;;;;;24.87;23.00;;;;;;;;;;5124928;27;20443;-84
2023/10/01 08:53:41;;;;;;;24.13;22.33;;;;;;;;;;5138586;27;20435;-83
2023/10/01 08:56:13;;;;;;;25.47;23.53;;;;;;;;;;5137754;27;20455;-83
2023/10/01 08:58:48;;;;;;;24.60;22.90;;;;;;;;;;5137211;27;20419;-84
2023/10/01 09:01:19;;;;;;;23.33;21.63;;;;;;;;;;5133811;27;20494;-78
2023/10/01 09:03:48;;;;;;;23.83;22.13;;;;;;;;;;5129291;27;20424;-79
2023/10/01 09:06:25;;;;;;;24.40;22.47;;;;;;;;;;5130199;27;20491;-79
2023/10/01 09:08:55;;;;;;;25.07;22.90;;;;;;;;;;5129747;27;20414;-78
2023/10/01 09:11:35;;;;;;;25.60;23.10;;;;;;;;;;5130174;27;20534;-79
2023/10/01 09:14:17;;;;;;;23.57;21.80;;;;;;;;;;5129301;27;20509;-78
2023/10/01 09:16:44;;;;;;;24.93;22.93;;;;;;;;;;5130382;27;20803;-79
2023/10/01 09:21:54;;;;;;;24.03;22.23;;;;;;;;;;5130560;27;20468;-79
2023/10/01 09:24:38;;;;;;;22.80;21.10;;;;;;;;;;5122177;27;20508;-79
2023/10/01 09:27:18;;;;;;;24.30;22.37;;;;;;;;;;5112688;28;20474;-78
2023/10/01 09:29:48;;;;;;;25.40;23.20;;;;;;;;;;5114059;28;20436;-79
2023/10/01 09:32:15;;;;;;;24.33;22.43;;;;;;;;;;5107346;28;20441;-78
2023/10/01 09:34:47;;;;;;;24.40;21.90;;;;;;;;;;5096783;28;20446;-77
2023/10/01 09:37:33;;;;;;;24.80;22.80;;;;;;;;;;5092789;28;21313;-74
2023/10/01 09:40:05;;;;;;;24.20;22.30;;;;;;;;;;5106128;28;20580;-79
2023/10/01 09:42:36;;;;;;;24.10;22.30;;;;;;;;;;5115366;28;20517;-79
2023/10/01 09:45:24;;;;;;;23.63;21.73;;;;;;;;;;5116292;28;20910;-78
2023/10/01 09:47:56;;;;;;;24.43;22.47;;;;;;;;;;5118408;28;21151;-79
2023/10/01 09:50:24;;;;;;;24.93;23.03;;;;;;;;;;5118575;28;20536;-79
2023/10/01 09:52:52;;;;;;;24.23;22.43;;;;;;;;;;5117671;27;20427;-79
2023/10/01 09:55:26;;;;;;;24.83;22.83;;;;;;;;;;5117962;28;20440;-80
2023/10/01 09:57:54;;;;;;;25.33;23.23;;;;;;;;;;5117195;28;20510;-80
2023/10/01 10:00:39;;;;;;;24.57;22.77;;;;;;;;;;5117815;28;20785;-80
2023/10/01 10:03:09;;;;;;;26.63;24.53;;;;;;;;;;5118088;27;20523;-80
2023/10/01 10:05:39;;;;;;;24.90;22.87;;;;;;;;;;5116547;28;20484;-79
2023/10/01 10:08:15;;;;;;;25.77;23.70;;;;;;;;;;5118254;28;20536;-80
2023/10/01 10:10:48;;;;;;;25.47;22.93;;;;;;;;;;5117845;28;20829;-79
2023/10/01 10:13:36;;;;;;;24.40;22.50;;;;;;;;;;5117941;27;20494;-80
2023/10/01 10:16:28;;;;;;;24.77;22.87;;;;;;;;;;5117625;28;20457;-80
2023/10/01 10:19:08;;;;;;;24.10;22.37;;;;;;;;;;5117763;28;20444;-80
2023/10/01 10:22:05;;;;;;;24.30;22.40;;;;;;;;;;5117347;28;20501;-79
2023/10/01 10:24:34;;;;;;;23.37;21.73;;;;;;;;;;5117510;28;20812;-80
2023/10/01 10:27:07;;;;;;;24.83;23.00;;;;;;;;;;5117520;28;20535;-79
2023/10/01 10:29:57;;;;;;;26.27;24.27;;;;;;;;;;5117670;28;20436;-80
2023/10/01 10:32:24;;;;;;;28.00;25.33;;;;;;;;;;5117476;28;20597;-80
2023/10/01 10:35:06;;;;;;;26.70;24.60;;;;;;;;;;5117182;28;20458;-79
2023/10/01 10:37:52;;;;;;;27.10;25.20;;;;;;;;;;5117471;28;20464;-79
2023/10/01 10:40:26;;;;;;;27.37;25.00;;;;;;;;;;5117090;28;20439;-80
2023/10/01 10:43:19;;;;;;;27.30;24.80;;;;;;;;;;5116604;28;20465;-79
2023/10/01 10:45:59;;;;;;;27.67;25.17;;;;;;;;;;5116327;28;20428;-80
2023/10/01 10:48:41;;;;;;;28.40;25.70;;;;;;;;;;5116956;28;20448;-80
2023/10/01 10:51:07;;;;;;;26.47;24.17;;;;;;;;;;5116689;28;20437;-80
2023/10/01 10:53:42;;;;;;;27.90;25.40;;;;;;;;;;5116580;28;20450;-79
2023/10/01 10:56:10;;;;;;;26.67;24.47;;;;;;;;;;5117703;28;21032;-79
2023/10/01 10:58:39;;;;;;;27.47;25.37;;;;;;;;;;5118083;28;20444;-79
2023/10/01 11:01:16;;;;;;;27.67;25.33;;;;;;;;;;5117958;28;20483;-79
2023/10/01 11:03:44;;;;;;;27.97;25.60;;;;;;;;;;5117374;28;20422;-79
2023/10/01 11:06:16;;;;;;;26.80;24.30;;;;;;;;;;5117451;28;20493;-80
2023/10/01 11:08:50;;;;;;;26.97;24.87;;;;;;;;;;5116538;28;20454;-79
2023/10/01 11:11:18;;;;;;;27.00;24.90;;;;;;;;;;5116846;28;20432;-80
2023/10/01 11:13:46;;;;;;;28.17;25.57;;;;;;;;;;5116982;28;20437;-80
2023/10/01 11:16:15;;;;;;;27.53;25.33;;;;;;;;;;5116985;27;20467;-79
2023/10/01 11:18:44;;;;;;;26.33;24.10;;;;;;;;;;5117353;28;20502;-80
2023/10/01 11:21:20;;;;;;;28.33;25.50;;;;;;;;;;5116529;28;20462;-79
2023/10/01 11:23:47;;;;;;;28.07;25.40;;;;;;;;;;5117022;28;20418;-81
2023/10/01 11:26:26;;;;;;;28.37;25.90;;;;;;;;;;5117194;28;20542;-80
2023/10/01 11:28:57;;;;;;;28.03;25.83;;;;;;;;;;5118130;28;20411;-80
2023/10/01 11:31:24;;;;;;;28.57;26.17;;;;;;;;;;5117196;28;20425;-79
2023/10/01 11:34:03;;;;;;;28.23;25.93;;;;;;;;;;5117011;28;20759;-80
2023/10/01 11:36:37;;;;;;;27.13;25.07;;;;;;;;;;5117497;28;20464;-80
2023/10/01 11:39:04;;;;;;;28.93;26.57;;;;;;;;;;5117314;28;20455;-79
2023/10/01 11:41:41;;;;;;;25.70;23.70;;;;;;;;;;5117786;28;20484;-80
2023/10/01 11:44:16;;;;;;;25.90;23.80;;;;;;;;;;5116560;28;20419;-80
2023/10/01 11:49:39;;;;;;;28.33;25.93;;;;;;;;;;5136304;27;20956;-82
2023/10/01 11:52:21;;;;;;;27.90;25.40;;;;;;;;;;5137414;27;20447;-82
2023/10/01 11:54:52;;;;;;;26.73;24.70;;;;;;;;;;5137066;27;20481;-81
2023/10/01 11:57:22;;;;;;;27.30;25.03;;;;;;;;;;5128198;27;20545;-80
2023/10/01 11:59:54;;;;;;;27.87;25.60;;;;;;;;;;5124573;28;20417;-82
2023/10/01 12:02:25;;;;;;;29.50;27.07;;;;;;;;;;5115827;28;20548;-80
2023/10/01 12:04:57;;;;;;;28.27;25.57;;;;;;;;;;5114964;28;20446;-79
2023/10/01 12:07:27;;;;;;;26.77;24.67;;;;;;;;;;5113922;28;20460;-81
2023/10/01 12:09:55;;;;;;;27.33;25.20;;;;;;;;;;5114121;28;20426;-81
2023/10/01 12:12:25;;;;;;;28.93;26.53;;;;;;;;;;5113350;28;20452;-81
2023/10/01 12:14:55;;;;;;;27.20;25.00;;;;;;;;;;5113534;28;20818;-78
2023/10/01 12:17:24;;;;;;;27.47;25.30;;;;;;;;;;5108942;28;20460;-78
2023/10/01 12:19:58;;;;;;;27.53;25.23;;;;;;;;;;5115075;28;20478;-81
2023/10/01 12:22:26;;;;;;;28.80;26.00;;;;;;;;;;5112852;28;20436;-78
2023/10/01 12:25:02;;;;;;;27.57;25.17;;;;;;;;;;5109100;28;20471;-79
2023/10/01 12:27:45;;;;;;;24.77;22.87;;;;;;;;;;5108769;28;21422;-78
2023/10/01 12:30:27;;;;;;;26.50;24.40;;;;;;;;;;5114756;28;20439;-81
2023/10/01 12:32:55;;;;;;;27.43;25.03;;;;;;;;;;5113159;28;20432;-79
2023/10/01 12:35:30;;;;;;;28.43;26.13;;;;;;;;;;5109282;28;20451;-80
2023/10/01 12:40:49;;;;;;;28.40;26.00;;;;;;;;;;5109076;28;20407;-78
2023/10/01 12:45:58;;;;;;;28.00;25.80;;;;;;;;;;5105983;28;20441;-78
2023/10/01 12:48:24;;;;;;;27.90;25.70;;;;;;;;;;5107603;28;20496;-80
2023/10/01 12:51:00;;;;;;;27.30;25.10;;;;;;;;;;5107811;28;20451;-78
2023/10/01 12:53:27;;;;;;;27.63;25.43;;;;;;;;;;5108081;28;20497;-78
2023/10/01 12:55:54;;;;;;;28.87;26.37;;;;;;;;;;5108117;28;20454;-78
2023/10/01 12:58:29;;;;;;;28.97;26.50;;;;;;;;;;5109309;28;20448;-79
2023/10/01 13:00:57;;;;;;;28.93;26.20;;;;;;;;;;5093297;28;20456;-79
2023/10/01 13:03:23;;;;;;;27.40;25.00;;;;;;;;;;5094389;28;20954;-79
2023/10/01 13:05:53;;;;;;;27.53;25.50;;;;;;;;;;5102027;28;20450;-79
2023/10/01 13:08:28;;;;;;;27.47;25.27;;;;;;;;;;5114711;28;20493;-78
2023/10/01 13:10:56;;;;;;;28.77;26.07;;;;;;;;;;5115097;28;20407;-78
2023/10/01 13:13:29;;;;;;;27.50;25.30;;;;;;;;;;5114355;28;20434;-79
2023/10/01 13:15:56;;;;;;;27.83;25.57;;;;;;;;;;5094343;28;20449;-79
2023/10/01 13:18:28;;;;;;;29.17;26.97;;;;;;;;;;5093355;28;20416;-78
2023/10/01 13:21:06;;;;;;;29.10;26.60;;;;;;;;;;5094806;28;20441;-78
2023/10/01 13:23:41;;;;;;;27.40;25.03;;;;;;;;;;5098228;28;20431;-78
2023/10/01 13:26:15;;;;;;;29.37;26.77;;;;;;;;;;5093249;28;20503;-79
2023/10/01 13:28:46;;;;;;;27.90;25.67;;;;;;;;;;5093629;28;20512;-79
2023/10/01 13:31:35;;;;;;;29.70;27.30;;;;;;;;;;5100375;28;20457;-78
2023/10/01 13:34:21;;;;;;;27.87;25.57;;;;;;;;;;5098880;28;20936;-79
2023/10/01 14:09:48;;;;;;;29.53;27.07;;;;;;;;;;5093478;28;20510;-78
2023/10/01 14:12:15;;;;;;;28.70;26.23;;;;;;;;;;5092420;28;20440;-78
2023/10/01 14:14:43;;;;;;;28.27;25.80;;;;;;;;;;5092776;28;20449;-79
2023/10/01 14:17:13;;;;;;;28.20;25.80;;;;;;;;;;5093989;28;20505;-78
2023/10/01 14:19:42;;;;;;;29.00;26.70;;;;;;;;;;5095000;28;20459;-79
2023/10/01 14:22:19;;;;;;;29.30;26.37;;;;;;;;;;5094624;28;20449;-79
2023/10/01 14:24:47;;;;;;;28.73;26.20;;;;;;;;;;5093209;28;20826;-79
2023/10/01 14:27:24;;;;;;;28.67;26.13;;;;;;;;;;5094335;28;20832;-77
2023/10/01 14:30:00;;;;;;;28.43;26.13;;;;;;;;;;5095374;28;20502;-78
2023/10/01 14:32:34;;;;;;;28.53;26.20;;;;;;;;;;5094967;28;20431;-78
2023/10/01 14:35:14;;;;;;;28.00;25.80;;;;;;;;;;5090790;28;20560;-79
2023/10/01 14:37:41;;;;;;;27.17;25.07;;;;;;;;;;5092731;28;20484;-79
2023/10/01 14:40:15;;;;;;;27.67;25.53;;;;;;;;;;5092849;28;20518;-79
2023/10/01 14:42:42;;;;;;;26.77;24.57;;;;;;;;;;5093112;28;20437;-78
2023/10/01 14:45:11;;;;;;;27.53;25.20;;;;;;;;;;5092457;28;20991;-79
2023/10/01 14:47:42;;;;;;;27.43;25.13;;;;;;;;;;5092615;28;20454;-78
2023/10/01 14:50:14;;;;;;;27.73;25.30;;;;;;;;;;5093090;28;20820;-79
2023/10/01 14:52:45;;;;;;;28.10;25.60;;;;;;;;;;5093217;28;20437;-79
2023/10/01 14:55:22;;;;;;;27.00;24.70;;;;;;;;;;5092271;28;20510;-79
2023/10/01 14:57:51;;;;;;;28.50;25.87;;;;;;;;;;5093015;28;20468;-78
2023/10/01 15:00:19;;;;;;;28.13;25.73;;;;;;;;;;5093762;28;20449;-79
2023/10/01 15:02:48;;;;;;;28.07;25.77;;;;;;;;;;5094479;28;20460;-79
2023/10/01 15:05:17;;;;;;;28.53;26.03;;;;;;;;;;5095336;28;20464;-78
2023/10/01 15:07:44;;;;;;;28.90;26.70;;;;;;;;;;5096266;28;20444;-78
2023/10/01 15:10:13;;;;;;;28.00;25.80;;;;;;;;;;5095423;28;20481;-80
2023/10/01 15:12:40;;;;;;;28.43;26.13;;;;;;;;;;5096026;28;20529;-80
2023/10/01 15:15:18;;;;;;;29.80;27.23;;;;;;;;;;5095040;28;20461;-80
2023/10/01 15:17:46;;;;;;;26.93;24.60;;;;;;;;;;5096150;28;20549;-79
2023/10/01 15:20:27;;;;;;;28.57;26.20;;;;;;;;;;5095734;28;20491;-80
2023/10/01 15:22:55;;;;;;;29.13;26.20;;;;;;;;;;5095126;28;20904;-80
2023/10/01 15:25:24;;;;;;;27.97;25.37;;;;;;;;;;5094790;28;20460;-79
2023/10/01 15:27:52;;;;;;;26.17;23.97;;;;;;;;;;5095131;28;20455;-80
2023/10/01 15:30:24;;;;;;;27.10;24.90;;;;;;;;;;5095369;28;20480;-80
2023/10/01 15:33:00;;;;;;;27.30;25.17;;;;;;;;;;5095434;28;20816;-79
2023/10/01 15:35:27;;;;;;;28.53;25.83;;;;;;;;;;5095698;28;20429;-81
2023/10/01 15:37:54;;;;;;;29.03;26.33;;;;;;;;;;5095903;28;20463;-78
2023/10/01 15:40:27;;;;;;;27.37;25.27;;;;;;;;;;5095946;28;20437;-80